createdAt,value
2018-09-25T00:00:33.844Z,-61.751
2018-09-25T00:01:39.077Z,-61.0851
2018-09-25T00:02:44.538Z,-61.2542
2018-09-25T00:03:49.891Z,-61.5026
2018-09-25T00:04:54.753Z,-61.3388
2018-09-25T00:05:59.703Z,-61.751
2018-09-25T00:07:05.217Z,-61.9994
2018-09-25T00:08:10.376Z,-61.0851
2018-09-25T00:09:15.806Z,-61.0851
2018-09-25T00:10:21.461Z,-62.2478
2018-09-25T00:11:26.808Z,-60.8368
2018-09-25T00:12:32.460Z,-61.2542
2018-09-25T00:13:37.678Z,-61.5026
2018-09-25T00:14:43.110Z,-61.5026
2018-09-25T00:15:48.537Z,-60.5937
2018-09-25T00:16:53.737Z,-61.5026
2018-09-25T00:17:59.169Z,-61.5026
2018-09-25T00:19:04.638Z,-61.3388
2018-09-25T00:20:09.796Z,-61.9994
2018-09-25T00:21:14.662Z,-61.5026
2018-09-25T00:22:20.339Z,-61.9994
2018-09-25T00:23:25.790Z,-61.5026
2018-09-25T00:24:31.092Z,-61.5026
2018-09-25T00:25:36.236Z,-61.5026
2018-09-25T00:26:41.385Z,-60.8368
2018-09-25T00:27:46.786Z,-61.5026
2018-09-25T00:28:51.738Z,-60.8368
2018-09-25T00:29:56.922Z,-62.7445
2018-09-25T00:31:02.327Z,-61.751
2018-09-25T00:32:07.772Z,-61.9994
2018-09-25T00:33:12.918Z,-61.751
2018-09-25T00:34:18.133Z,-61.751
2018-09-25T00:35:23.562Z,-61.9994
2018-09-25T00:36:29.455Z,-60.8368
2018-09-25T00:37:34.894Z,-61.5026
2018-09-25T00:38:40.063Z,-61.0059
2018-09-25T00:39:45.000Z,-61.9994
2018-09-25T00:40:49.882Z,-61.751
2018-09-25T00:41:55.319Z,-61.0059
2018-09-25T00:43:00.999Z,-61.0059
2018-09-25T00:44:05.867Z,-61.751
2018-09-25T00:45:11.118Z,-61.9994
2018-09-25T00:46:16.795Z,-61.2542
2018-09-25T00:47:22.237Z,-61.9994
2018-09-25T00:48:27.987Z,-61.5026
2018-09-25T00:49:32.874Z,-62.2478
2018-09-25T00:50:38.069Z,-62.4961
2018-09-25T00:51:43.767Z,-62.2478
2018-09-25T00:52:49.296Z,-61.9994
2018-09-25T00:53:54.431Z,-61.9994
2018-09-25T00:55:00.160Z,-62.9929
2018-09-25T00:56:05.324Z,-62.9929
2018-09-25T00:57:10.476Z,-62.7445
2018-09-25T00:58:16.188Z,-61.9994
2018-09-25T00:59:20.764Z,-62.2478
2018-09-25T01:00:40.982Z,-62.7445
2018-09-25T01:01:46.481Z,-62.2478
2018-09-25T01:02:51.908Z,-62.7445
2018-09-25T01:03:57.491Z,-62.2478
2018-09-25T01:05:02.067Z,-61.9994
2018-09-25T01:06:07.291Z,-63.2413
2018-09-25T01:07:12.791Z,-61.9994
2018-09-25T01:08:18.228Z,-62.4961
2018-09-25T01:09:23.676Z,-61.9994
2018-09-25T01:10:28.846Z,-61.5026
2018-09-25T01:11:33.988Z,-61.9994
2018-09-25T01:12:39.665Z,-62.9929
2018-09-25T01:13:44.570Z,-62.9929
2018-09-25T01:14:49.712Z,-63.2413
2018-09-25T01:15:55.435Z,-63.4051
2018-09-25T01:17:00.576Z,-62.4961
2018-09-25T01:18:05.161Z,-62.2478
2018-09-25T01:19:11.164Z,-62.9929
2018-09-25T01:20:16.783Z,-62.4961
2018-09-25T01:21:22.211Z,-63.4051
2018-09-25T01:22:28.085Z,-62.9929
2018-09-25T01:23:33.227Z,-63.2413
2018-09-25T01:24:38.357Z,-62.9929
2018-09-25T01:25:44.040Z,-63.4051
2018-09-25T01:26:48.915Z,-63.4051
2018-09-25T01:27:54.670Z,-63.2413
2018-09-25T01:29:00.130Z,-62.9929
2018-09-25T01:30:05.307Z,-64.1502
2018-09-25T01:31:10.423Z,-62.9929
2018-09-25T01:32:15.046Z,-63.9018
2018-09-25T01:33:20.477Z,-63.6535
2018-09-25T01:34:25.650Z,-63.4051
2018-09-25T01:35:30.796Z,-64.3986
2018-09-25T01:36:36.240Z,-63.6535
2018-09-25T01:37:41.760Z,-63.4051
2018-09-25T01:38:46.958Z,-63.9018
2018-09-25T01:39:52.582Z,-62.9929
2018-09-25T01:40:57.733Z,-63.6535
2018-09-25T01:42:02.332Z,-63.4051
2018-09-25T01:43:08.013Z,-63.6535
2018-09-25T01:44:12.974Z,-64.1502
2018-09-25T01:45:18.401Z,-63.9018
2018-09-25T01:46:23.993Z,-64.3986
2018-09-25T01:47:29.164Z,-63.6535
2018-09-25T01:48:34.946Z,-63.6535
2018-09-25T01:49:40.451Z,-64.1502
2018-09-25T01:50:45.371Z,-63.1567
2018-09-25T01:51:50.786Z,-63.6535
2018-09-25T01:52:55.749Z,-63.6535
2018-09-25T01:54:00.939Z,-63.6535
2018-09-25T01:55:06.157Z,-63.9018
2018-09-25T01:56:11.634Z,-63.4051
2018-09-25T01:57:16.820Z,-63.1567
2018-09-25T01:58:22.351Z,-63.9018
2018-09-25T01:59:27.236Z,-64.1502
2018-09-25T02:00:32.341Z,-63.9018
2018-09-25T02:01:37.768Z,-64.3986
2018-09-25T02:02:43.219Z,-64.647
2018-09-25T02:03:48.986Z,-64.8954
2018-09-25T02:04:54.451Z,-63.9018
2018-09-25T02:05:59.963Z,-64.647
2018-09-25T02:07:05.778Z,-64.3986
2018-09-25T02:08:10.933Z,-64.647
2018-09-25T02:09:16.104Z,-64.647
2018-09-25T02:10:21.891Z,-64.8954
2018-09-25T02:11:26.513Z,-64.1502
2018-09-25T02:12:32.291Z,-64.1502
2018-09-25T02:13:37.815Z,-64.647
2018-09-25T02:14:42.966Z,-65.1437
2018-09-25T02:15:48.646Z,-65.3921
2018-09-25T02:16:53.577Z,-64.3986
2018-09-25T02:17:59.006Z,-64.8954
2018-09-25T02:19:04.211Z,-64.647
2018-09-25T02:20:09.519Z,-64.3986
2018-09-25T02:21:14.676Z,-65.3921
2018-09-25T02:22:20.202Z,-65.3921
2018-09-25T02:23:25.426Z,-65.8043
2018-09-25T02:24:30.981Z,-65.1437
2018-09-25T02:25:36.460Z,-65.8043
2018-09-25T02:26:41.961Z,-65.3921
2018-09-25T02:27:46.798Z,-66.0527
2018-09-25T02:28:51.948Z,-65.3921
2018-09-25T02:29:57.401Z,-65.3921
2018-09-25T02:31:02.348Z,-65.8043
2018-09-25T02:32:07.622Z,-65.3921
2018-09-25T02:33:13.106Z,-65.1437
2018-09-25T02:34:18.623Z,-65.8043
2018-09-25T02:35:24.097Z,-65.3921
2018-09-25T02:36:30.053Z,-65.8043
2018-09-25T02:37:35.484Z,-66.4649
2018-09-25T02:38:40.914Z,-65.8043
2018-09-25T02:39:45.468Z,-66.4649
2018-09-25T02:40:50.988Z,-65.1437
2018-09-25T02:41:56.428Z,-65.5559
2018-09-25T02:43:01.552Z,-66.0527
2018-09-25T02:44:06.737Z,-65.5559
2018-09-25T02:45:12.170Z,-65.8043
2018-09-25T02:46:17.001Z,-66.7133
2018-09-25T02:47:21.869Z,-65.3076
2018-09-25T02:48:27.684Z,-66.7133
2018-09-25T02:49:32.816Z,-66.4649
2018-09-25T02:50:37.974Z,-65.8043
2018-09-25T02:51:43.677Z,-66.0527
2018-09-25T02:52:49.108Z,-66.9617
2018-09-25T02:53:54.266Z,-66.4649
2018-09-25T02:54:59.820Z,-67.4584
2018-09-25T02:56:05.017Z,-66.9617
2018-09-25T02:57:10.199Z,-67.21
2018-09-25T02:58:15.713Z,-67.21
2018-09-25T02:59:20.566Z,-66.4649
2018-09-25T03:00:26.149Z,-66.0527
2018-09-25T03:01:31.770Z,-65.8043
2018-09-25T03:02:36.638Z,-68.6157
2018-09-25T03:03:42.077Z,-67.21
2018-09-25T03:04:46.536Z,-67.4584
2018-09-25T03:05:52.074Z,-67.9552
2018-09-25T03:06:57.905Z,-66.4649
2018-09-25T03:08:03.165Z,-67.21
2018-09-25T03:09:08.311Z,-66.9617
2018-09-25T03:10:13.553Z,-66.9617
2018-09-25T03:11:18.821Z,-66.4649
2018-09-25T03:12:23.692Z,-67.4584
2018-09-25T03:13:29.227Z,-67.21
2018-09-25T03:14:34.445Z,-67.21
2018-09-25T03:15:40.371Z,-67.8706
2018-09-25T03:16:45.865Z,-67.21
2018-09-25T03:17:51.319Z,-67.6222
2018-09-25T03:18:56.622Z,-67.8706
2018-09-25T03:20:01.261Z,-67.8706
2018-09-25T03:21:06.469Z,-68.3674
2018-09-25T03:22:11.884Z,-67.6222
2018-09-25T03:23:17.076Z,-67.3739
2018-09-25T03:24:21.947Z,-68.3674
2018-09-25T03:25:42.363Z,-68.119
2018-09-25T03:26:47.632Z,-68.8641
2018-09-25T03:27:52.740Z,-68.6157
2018-09-25T03:28:57.980Z,-67.3739
2018-09-25T03:30:03.562Z,-68.119
2018-09-25T03:31:08.822Z,-67.8706
2018-09-25T03:32:13.797Z,-67.6222
2018-09-25T03:33:18.723Z,-68.3674
2018-09-25T03:34:24.411Z,-67.3739
2018-09-25T03:35:29.314Z,-68.3674
2018-09-25T03:36:34.443Z,-68.6157
2018-09-25T03:37:39.934Z,-68.3674
2018-09-25T03:38:44.520Z,-68.8641
2018-09-25T03:39:50.091Z,-67.8706
2018-09-25T03:40:55.240Z,-68.8641
2018-09-25T03:42:00.676Z,-68.119
2018-09-25T03:43:06.117Z,-68.8641
2018-09-25T03:44:11.540Z,-68.119
2018-09-25T03:45:16.405Z,-68.8641
2018-09-25T03:46:21.865Z,-69.1125
2018-09-25T03:47:27.358Z,-68.119
2018-09-25T03:48:33.315Z,-68.8641
2018-09-25T03:49:38.467Z,-68.8641
2018-09-25T03:50:43.683Z,-69.1125
2018-09-25T03:51:48.536Z,-69.2763
2018-09-25T03:52:53.203Z,-68.8641
2018-09-25T03:53:57.999Z,-69.2763
2018-09-25T03:55:03.130Z,-68.8641
2018-09-25T03:56:08.031Z,-68.3674
2018-09-25T03:57:13.182Z,-68.6157
2018-09-25T03:58:18.608Z,-69.2763
2018-09-25T03:59:24.137Z,-69.1125
2018-09-25T04:00:29.709Z,-68.7796
2018-09-25T04:01:34.848Z,-69.0279
2018-09-25T04:02:39.543Z,-68.3674
2018-09-25T04:03:45.018Z,-68.7796
2018-09-25T04:04:50.162Z,-69.0279
2018-09-25T04:05:55.143Z,-69.0279
2018-09-25T04:07:01.713Z,-68.7796
2018-09-25T04:08:07.198Z,-69.2763
2018-09-25T04:09:12.675Z,-67.6222
2018-09-25T04:10:18.352Z,-68.5365
2018-09-25T04:11:23.500Z,-68.5365
2018-09-25T04:12:28.891Z,-68.7796
2018-09-25T04:13:34.087Z,-69.0279
2018-09-25T04:14:39.529Z,-68.5365
2018-09-25T04:15:45.289Z,-69.0279
2018-09-25T04:16:50.510Z,-68.7796
2018-09-25T04:17:55.661Z,-68.5365
2018-09-25T04:19:01.230Z,-68.5365
2018-09-25T04:20:05.647Z,-68.5365
2018-09-25T04:21:10.794Z,-69.4454
2018-09-25T04:22:15.996Z,-68.4519
2018-09-25T04:23:21.145Z,-69.4454
2018-09-25T04:24:41.663Z,-69.6938
2018-09-25T04:25:47.191Z,-69.4454
2018-09-25T04:26:52.619Z,-69.8576
2018-09-25T04:27:58.025Z,-69.3609
2018-09-25T04:29:02.346Z,-70.3544
2018-09-25T04:30:07.815Z,-70.106
2018-09-25T04:31:13.318Z,-69.8576
2018-09-25T04:32:18.554Z,-70.5182
2018-09-25T04:33:23.697Z,-70.106
2018-09-25T04:34:29.838Z,-70.5182
2018-09-25T04:35:34.756Z,-70.5182
2018-09-25T04:36:39.777Z,-70.2698
2018-09-25T04:37:45.187Z,-70.0215
2018-09-25T04:38:50.148Z,-71.0097
2018-09-25T04:39:55.552Z,-71.2634
2018-09-25T04:41:00.981Z,-71.4272
2018-09-25T04:42:06.211Z,-71.6756
2018-09-25T04:43:11.708Z,-71.6756
2018-09-25T04:44:17.148Z,-71.4272
2018-09-25T04:45:22.418Z,-71.1788
2018-09-25T04:46:41.926Z,-71.1788
2018-09-25T04:47:47.710Z,-71.8394
2018-09-25T04:48:53.532Z,-71.4272
2018-09-25T04:49:58.744Z,-72.3361
2018-09-25T04:51:03.891Z,-72.0878
2018-09-25T04:52:09.572Z,-72.5
2018-09-25T04:53:14.805Z,-71.8394
2018-09-25T04:54:20.265Z,-71.6756
2018-09-25T04:55:26.198Z,-72.5
2018-09-25T04:56:31.377Z,-72.2516
2018-09-25T04:57:36.978Z,-72.2516
2018-09-25T04:58:42.257Z,-71.8394
2018-09-25T04:59:47.127Z,-72.2516
2018-09-25T05:00:53.010Z,-71.3479
2018-09-25T05:01:57.613Z,-70.682
2018-09-25T05:03:02.561Z,-72.0085
2018-09-25T05:04:08.264Z,-71.591
2018-09-25T05:05:12.863Z,-72.0085
2018-09-25T05:06:18.061Z,-72.0085
2018-09-25T05:07:23.462Z,-72.0085
2018-09-25T05:08:28.640Z,-72.5
2018-09-25T05:09:33.963Z,-72.7536
2018-09-25T05:10:39.486Z,-71.8394
2018-09-25T05:11:44.351Z,-72.0085
2018-09-25T05:12:49.918Z,-72.2516
2018-09-25T05:13:54.778Z,-72.9174
2018-09-25T05:14:59.978Z,-72.2516
2018-09-25T05:16:05.731Z,-72.6691
2018-09-25T05:17:10.905Z,-72.9174
2018-09-25T05:18:16.794Z,-72.6691
2018-09-25T05:19:22.788Z,-72.4207
2018-09-25T05:20:28.049Z,-72.6691
2018-09-25T05:21:33.031Z,-73.6626
2018-09-25T05:22:38.322Z,-72.9174
2018-09-25T05:23:43.860Z,-73.9057
2018-09-25T05:24:50.080Z,-73.6626
2018-09-25T05:25:55.309Z,-73.4089
2018-09-25T05:27:00.229Z,-74.3232
2018-09-25T05:28:05.629Z,-74.5662
2018-09-25T05:29:11.122Z,-74.5662
2018-09-25T05:30:16.599Z,-74.0748
2018-09-25T05:31:22.004Z,-74.8146
2018-09-25T05:32:27.269Z,-74.5662
2018-09-25T05:33:32.951Z,-74.3232
2018-09-25T05:34:38.093Z,-73.8264
2018-09-25T05:35:43.560Z,-74.3232
2018-09-25T05:36:49.331Z,-73.8264
2018-09-25T05:37:54.764Z,-73.578
2018-09-25T05:38:59.989Z,-73.4089
2018-09-25T05:40:05.131Z,-74.0748
2018-09-25T05:41:10.283Z,-73.1605
2018-09-25T05:42:15.738Z,-73.8264
2018-09-25T05:43:21.014Z,-74.0748
2018-09-25T05:44:26.646Z,-74.0748
2018-09-25T05:45:32.108Z,-74.5662
2018-09-25T05:46:37.308Z,-73.8264
2018-09-25T05:47:42.457Z,-73.3296
2018-09-25T05:48:48.702Z,-73.8264
2018-09-25T05:49:54.578Z,-73.578
2018-09-25T05:50:59.253Z,-73.0813
2018-09-25T05:52:05.031Z,-74.8146
2018-09-25T05:53:10.580Z,-73.3296
2018-09-25T05:54:16.017Z,-73.0813
2018-09-25T05:55:21.593Z,-73.578
2018-09-25T05:56:26.770Z,-73.578
2018-09-25T05:57:32.096Z,-73.8264
2018-09-25T05:58:36.995Z,-73.8264
2018-09-25T05:59:41.636Z,-73.0813
2018-09-25T06:00:47.468Z,-72.8329
2018-09-25T06:01:52.672Z,-73.3296
2018-09-25T06:02:57.823Z,-73.0813
2018-09-25T06:04:03.245Z,-73.0813
2018-09-25T06:05:08.185Z,-73.8264
2018-09-25T06:06:13.637Z,-73.3296
2018-09-25T06:07:19.395Z,-73.8264
2018-09-25T06:08:24.595Z,-73.0813
2018-09-25T06:09:30.676Z,-72.8329
2018-09-25T06:10:36.176Z,-73.8264
2018-09-25T06:11:41.760Z,-74.3232
2018-09-25T06:12:47.183Z,-74.0748
2018-09-25T06:13:52.160Z,-73.578
2018-09-25T06:14:57.365Z,-73.578
2018-09-25T06:16:02.259Z,-74.487
2018-09-25T06:17:06.835Z,-74.3232
2018-09-25T06:18:11.427Z,-74.0748
2018-09-25T06:19:16.590Z,-74.7354
2018-09-25T06:20:22.015Z,-73.8264
2018-09-25T06:21:42.339Z,-75.2321
2018-09-25T06:22:47.843Z,-74.7354
2018-09-25T06:23:53.488Z,-74.9784
2018-09-25T06:24:58.987Z,-75.2321
2018-09-25T06:26:04.221Z,-74.487
2018-09-25T06:27:09.659Z,-75.2321
2018-09-25T06:28:15.392Z,-74.487
2018-09-25T06:29:20.697Z,-76.2203
2018-09-25T06:30:40.612Z,-75.7236
2018-09-25T06:31:45.760Z,-74.9784
2018-09-25T06:32:50.997Z,-75.4752
2018-09-25T06:33:55.934Z,-76.2203
2018-09-25T06:35:01.539Z,-75.972
2018-09-25T06:36:07.246Z,-74.9784
2018-09-25T06:37:13.121Z,-75.7236
2018-09-25T06:38:18.251Z,-74.9784
2018-09-25T06:39:23.812Z,-76.8809
2018-09-25T06:40:29.370Z,-75.4752
2018-09-25T06:41:34.270Z,-75.4752
2018-09-25T06:42:40.072Z,-76.2203
2018-09-25T06:43:45.223Z,-75.7236
2018-09-25T06:44:50.376Z,-76.2203
2018-09-25T06:45:56.178Z,-75.972
2018-09-25T06:47:01.317Z,-76.6378
2018-09-25T06:48:06.396Z,-75.7236
2018-09-25T06:49:11.678Z,-76.8809
2018-09-25T06:50:17.084Z,-77.3777
2018-09-25T06:51:21.953Z,-76.6378
2018-09-25T06:52:42.329Z,-76.6378
2018-09-25T06:53:47.848Z,-77.1293
2018-09-25T06:54:54.233Z,-76.3842
2018-09-25T06:55:59.545Z,-76.8809
2018-09-25T06:57:04.822Z,-76.6378
2018-09-25T06:58:10.516Z,-76.3842
2018-09-25T06:59:15.940Z,-77.1293
2018-09-25T07:00:20.949Z,-76.3842
2018-09-25T07:01:26.726Z,-77.3777
2018-09-25T07:02:31.901Z,-77.3777
2018-09-25T07:03:37.039Z,-77.8744
2018-09-25T07:04:42.468Z,-77.1293
2018-09-25T07:05:48.024Z,-76.8809
2018-09-25T07:06:53.610Z,-77.3777
2018-09-25T07:07:59.039Z,-78.1228
2018-09-25T07:09:04.570Z,-77.3777
2018-09-25T07:10:10.416Z,-77.1293
2018-09-25T07:11:16.473Z,-77.3777
2018-09-25T07:12:21.895Z,-77.3777
2018-09-25T07:13:27.297Z,-77.8744
2018-09-25T07:14:32.459Z,-77.8744
2018-09-25T07:15:37.583Z,-77.3777
2018-09-25T07:16:43.061Z,-77.6261
2018-09-25T07:17:48.619Z,-77.6261
2018-09-25T07:18:53.900Z,-77.4622
2018-09-25T07:19:59.060Z,-77.2139
2018-09-25T07:21:03.379Z,-77.6261
2018-09-25T07:22:09.094Z,-79.1163
2018-09-25T07:23:14.406Z,-78.1228
2018-09-25T07:24:19.849Z,-79.3594
2018-09-25T07:25:25.279Z,-78.8679
2018-09-25T07:26:30.430Z,-77.9537
2018-09-25T07:27:36.211Z,-79.3594
2018-09-25T07:28:41.352Z,-79.3594
2018-09-25T07:29:46.594Z,-78.8679
2018-09-25T07:30:52.064Z,-78.6196
2018-09-25T07:31:57.334Z,-79.8562
2018-09-25T07:33:02.336Z,-79.1163
2018-09-25T07:34:06.926Z,-80.1045
2018-09-25T07:35:11.657Z,-79.6131
2018-09-25T07:36:16.895Z,-79.6131
2018-09-25T07:37:22.723Z,-79.6131
2018-09-25T07:38:27.894Z,-79.3594
2018-09-25T07:39:33.822Z,-80.3529
2018-09-25T07:40:39.241Z,-79.6131
2018-09-25T07:41:44.392Z,-80.3529
2018-09-25T07:42:49.273Z,-80.1045
2018-09-25T07:43:54.863Z,-80.6013
2018-09-25T07:45:00.006Z,-80.8497
2018-09-25T07:46:05.182Z,-81.0981
2018-09-25T07:47:10.698Z,-80.8497
2018-09-25T07:48:15.864Z,-80.6013
2018-09-25T07:49:21.926Z,-80.8497
2018-09-25T07:50:27.360Z,-80.3529
2018-09-25T07:51:33.056Z,-81.5895
2018-09-25T07:52:38.198Z,-82.2501
2018-09-25T07:53:43.068Z,-81.8379
2018-09-25T07:54:48.733Z,-81.5895
2018-09-25T07:55:54.176Z,-82.2501
2018-09-25T07:56:59.404Z,-82.0863
2018-09-25T07:58:04.927Z,-81.5895
2018-09-25T07:59:10.082Z,-81.3412
2018-09-25T08:00:15.234Z,-82.0863
2018-09-25T08:01:20.936Z,-81.8379
2018-09-25T08:02:26.084Z,-81.8379
2018-09-25T08:03:32.021Z,-82.7469
2018-09-25T08:04:36.697Z,-82.4985
2018-09-25T08:05:42.118Z,-82.0863
2018-09-25T08:06:47.652Z,-81.8379
2018-09-25T08:07:52.520Z,-82.583
2018-09-25T08:08:57.359Z,-81.5895
2018-09-25T08:10:02.346Z,-82.583
2018-09-25T08:11:07.816Z,-82.583
2018-09-25T08:12:13.383Z,-82.7469
2018-09-25T08:13:19.165Z,-82.3347
2018-09-25T08:14:24.378Z,-81.3412
2018-09-25T08:15:30.350Z,-82.3347
2018-09-25T08:16:36.022Z,-82.7469
2018-09-25T08:17:41.453Z,-82.3347
2018-09-25T08:18:47.236Z,-82.7469
2018-09-25T08:19:52.718Z,-82.4985
2018-09-25T08:20:57.885Z,-82.0863
2018-09-25T08:22:03.648Z,-82.7469
2018-09-25T08:23:08.809Z,-83.2436
2018-09-25T08:24:14.351Z,-82.7469
2018-09-25T08:25:19.757Z,-83.6558
2018-09-25T08:26:24.707Z,-82.7469
2018-09-25T08:27:30.589Z,-82.9952
2018-09-25T08:28:35.450Z,-83.492
2018-09-25T08:29:40.870Z,-83.6558
2018-09-25T08:30:47.017Z,-84.1526
2018-09-25T08:31:52.170Z,-83.6558
2018-09-25T08:32:57.611Z,-83.9042
2018-09-25T08:34:03.079Z,-83.492
2018-09-25T08:35:08.678Z,-84.1526
2018-09-25T08:36:14.150Z,-83.6558
2018-09-25T08:37:20.002Z,-84.1526
2018-09-25T08:38:25.041Z,-84.1526
2018-09-25T08:39:32.248Z,-84.1526
2018-09-25T08:40:37.718Z,-84.6493
2018-09-25T08:41:42.639Z,-85.1408
2018-09-25T08:42:48.231Z,-84.6493
2018-09-25T08:43:53.369Z,-84.6493
2018-09-25T08:44:59.217Z,-84.6493
2018-09-25T08:46:05.050Z,-84.6493
2018-09-25T08:47:10.425Z,-85.6376
2018-09-25T08:48:15.256Z,-85.1408
2018-09-25T08:49:21.063Z,-84.8924
2018-09-25T08:50:26.496Z,-84.8924
2018-09-25T08:51:32.079Z,-85.3892
2018-09-25T08:52:37.229Z,-85.6376
2018-09-25T08:53:42.238Z,-85.1408
2018-09-25T08:54:47.945Z,-85.1408
2018-09-25T08:55:53.431Z,-86.1343
2018-09-25T08:56:58.882Z,-85.3892
2018-09-25T08:58:04.564Z,-84.6493
2018-09-25T08:59:09.161Z,-85.1408
2018-09-25T09:00:13.754Z,-85.1408
2018-09-25T09:01:19.153Z,-85.3892
2018-09-25T09:02:24.685Z,-85.8859
2018-09-25T09:03:30.372Z,-86.1343
2018-09-25T09:04:35.515Z,-86.1343
2018-09-25T09:05:40.794Z,-86.5465
2018-09-25T09:06:46.483Z,-85.8859
2018-09-25T09:07:51.357Z,-85.8014
2018-09-25T09:08:56.223Z,-86.7949
2018-09-25T09:10:01.403Z,-86.5465
2018-09-25T09:11:06.348Z,-86.2981
2018-09-25T09:12:11.796Z,-86.1343
2018-09-25T09:13:17.298Z,-85.6376
2018-09-25T09:14:22.549Z,-86.0498
2018-09-25T09:15:27.830Z,-85.6376
2018-09-25T09:16:33.384Z,-85.3892
2018-09-25T09:17:38.896Z,-86.1343
2018-09-25T09:18:44.091Z,-85.6376
2018-09-25T09:19:48.963Z,-86.1343
2018-09-25T09:20:54.386Z,-85.6376
2018-09-25T09:22:00.281Z,-85.8859
2018-09-25T09:23:05.193Z,-86.2981
2018-09-25T09:24:10.403Z,-85.8014
2018-09-25T09:25:16.109Z,-85.553
2018-09-25T09:26:21.847Z,-85.3099
2018-09-25T09:27:27.443Z,-86.0498
2018-09-25T09:28:32.681Z,-85.8014
2018-09-25T09:29:37.846Z,-85.3099
2018-09-25T09:30:43.424Z,-85.0615
2018-09-25T09:31:48.733Z,-85.3099
2018-09-25T09:32:53.909Z,-85.553
2018-09-25T09:33:59.802Z,-86.0498
2018-09-25T09:35:04.402Z,-86.2981
2018-09-25T09:36:09.475Z,-86.5465
2018-09-25T09:37:15.249Z,-86.462
2018-09-25T09:38:20.670Z,-85.8014
2018-09-25T09:39:40.859Z,-86.7104
2018-09-25T09:40:46.128Z,-86.9587
2018-09-25T09:41:51.636Z,-86.2189
2018-09-25T09:42:57.318Z,-86.9587
2018-09-25T09:44:02.025Z,-85.9652
2018-09-25T09:45:07.180Z,-85.9652
2018-09-25T09:46:12.865Z,-85.9652
2018-09-25T09:47:18.331Z,-85.9652
2018-09-25T09:48:23.759Z,-85.9652
2018-09-25T09:49:29.458Z,-86.2189
2018-09-25T09:50:35.568Z,-85.9652
2018-09-25T09:51:40.993Z,-86.9587
2018-09-25T09:52:46.660Z,-86.7104
2018-09-25T09:53:52.092Z,-86.462
2018-09-25T09:54:57.866Z,-86.7104
2018-09-25T09:56:02.649Z,-86.462
2018-09-25T09:57:07.828Z,-86.7104
2018-09-25T09:58:13.540Z,-86.2189
2018-09-25T09:59:18.698Z,-86.9587
2018-09-25T10:00:23.281Z,-86.7104
2018-09-25T10:01:28.228Z,-86.462
2018-09-25T10:02:33.654Z,-86.2189
2018-09-25T10:03:39.072Z,-85.7221
2018-09-25T10:04:44.682Z,-86.2189
2018-09-25T10:05:49.825Z,-85.9652
2018-09-25T10:06:56.465Z,-86.2189
2018-09-25T10:08:02.016Z,-85.9652
2018-09-25T10:09:06.887Z,-86.2189
2018-09-25T10:10:12.041Z,-85.9652
2018-09-25T10:11:17.206Z,-85.2254
2018-09-25T10:12:22.485Z,-85.2254
2018-09-25T10:13:28.319Z,-85.2254
2018-09-25T10:14:33.193Z,-85.7221
2018-09-25T10:15:38.922Z,-85.4737
2018-09-25T10:16:44.174Z,-85.4737
2018-09-25T10:17:49.606Z,-85.7221
2018-09-25T10:18:55.426Z,-85.7221
2018-09-25T10:20:00.484Z,-85.4737
2018-09-25T10:21:05.638Z,-85.4737
2018-09-25T10:22:10.862Z,-85.7221
2018-09-25T10:23:16.310Z,-85.4737
2018-09-25T10:24:21.458Z,-85.7221
2018-09-25T10:25:26.625Z,-86.2189
2018-09-25T10:26:31.801Z,-84.7286
2018-09-25T10:27:36.973Z,-84.7286
2018-09-25T10:28:42.396Z,-84.7286
2018-09-25T10:29:47.261Z,-84.3164
2018-09-25T10:30:52.389Z,-84.3164
2018-09-25T10:31:57.835Z,-84.8132
2018-09-25T10:33:02.900Z,-84.3164
2018-09-25T10:34:08.940Z,-84.7286
2018-09-25T10:35:14.143Z,-84.977
2018-09-25T10:36:19.298Z,-84.7286
2018-09-25T10:37:24.756Z,-85.7221
2018-09-25T10:38:29.319Z,-85.4737
2018-09-25T10:39:34.911Z,-84.977
2018-09-25T10:40:40.761Z,-85.2254
2018-09-25T10:41:46.002Z,-84.977
2018-09-25T10:42:51.498Z,-84.977
2018-09-25T10:43:55.881Z,-85.7221
2018-09-25T10:45:00.795Z,-85.2254
2018-09-25T10:46:06.241Z,-84.4802
2018-09-25T10:47:11.674Z,-84.8132
2018-09-25T10:48:16.826Z,-84.7286
2018-09-25T10:49:21.944Z,-85.7221
2018-09-25T10:50:27.115Z,-86.2189
2018-09-25T10:51:32.343Z,-86.2189
2018-09-25T10:52:37.815Z,-86.462
2018-09-25T10:53:42.977Z,-86.7104
2018-09-25T10:54:48.419Z,-84.7286
2018-09-25T10:55:54.708Z,-85.7221
2018-09-25T10:57:00.444Z,-85.2254
2018-09-25T10:58:06.155Z,-85.4737
2018-09-25T10:59:11.028Z,-84.977
2018-09-25T11:00:15.973Z,-84.8132
2018-09-25T11:01:21.385Z,-85.7221
2018-09-25T11:02:26.852Z,-84.977
2018-09-25T11:03:32.974Z,-84.068
2018-09-25T11:04:38.492Z,-85.7221
2018-09-25T11:05:43.647Z,-84.977
2018-09-25T11:06:49.547Z,-85.9652
2018-09-25T11:07:54.514Z,-85.2254
2018-09-25T11:08:59.369Z,-84.977
2018-09-25T11:10:04.671Z,-84.977
2018-09-25T11:11:10.224Z,-85.2254
2018-09-25T11:12:15.582Z,-84.2318
2018-09-25T11:13:20.705Z,-84.977
2018-09-25T11:14:26.238Z,-84.2318
2018-09-25T11:15:31.494Z,-85.2254
2018-09-25T11:16:36.369Z,-84.977
2018-09-25T11:17:41.921Z,-84.4802
2018-09-25T11:18:47.835Z,-84.4802
2018-09-25T11:19:53.261Z,-84.2318
2018-09-25T11:20:58.476Z,-84.2318
2018-09-25T11:22:04.190Z,-84.4802
2018-09-25T11:23:09.537Z,-83.8196
2018-09-25T11:24:14.455Z,-83.5713
2018-09-25T11:25:20.097Z,-83.8196
2018-09-25T11:26:25.047Z,-84.977
2018-09-25T11:27:30.574Z,-83.5713
2018-09-25T11:28:35.871Z,-84.2318
2018-09-25T11:29:41.364Z,-84.7286
2018-09-25T11:30:46.789Z,-84.7286
2018-09-25T11:31:52.218Z,-84.7286
2018-09-25T11:32:57.380Z,-85.4737
2018-09-25T11:34:02.729Z,-84.4802
2018-09-25T11:35:07.976Z,-85.9652
2018-09-25T11:36:13.281Z,-84.7286
2018-09-25T11:37:18.814Z,-84.977
2018-09-25T11:38:23.983Z,-84.977
2018-09-25T11:39:29.538Z,-84.977
2018-09-25T11:40:34.973Z,-84.7286
2018-09-25T11:41:40.073Z,-84.7286
2018-09-25T11:42:45.244Z,-84.977
2018-09-25T11:43:50.498Z,-85.2254
2018-09-25T11:44:55.924Z,-85.7221
2018-09-25T11:46:02.014Z,-85.2254
2018-09-25T11:47:07.654Z,-86.1343
2018-09-25T11:48:12.514Z,-86.6258
2018-09-25T11:49:18.303Z,-86.1343
2018-09-25T11:50:23.508Z,-85.7221
2018-09-25T11:51:28.942Z,-86.3827
2018-09-25T11:52:33.810Z,-85.8859
2018-09-25T11:53:39.252Z,-85.4737
2018-09-25T11:54:45.079Z,-85.4737
2018-09-25T11:55:50.544Z,-85.4737
2018-09-25T11:56:55.131Z,-86.1343
2018-09-25T11:58:00.248Z,-85.8859
2018-09-25T11:59:05.154Z,-85.4737
2018-09-25T12:00:10.457Z,-85.2254
2018-09-25T12:01:15.602Z,-85.4737
2018-09-25T12:02:20.738Z,-85.2254
2018-09-25T12:03:40.636Z,-85.2254
2018-09-25T12:04:46.076Z,-84.4802
2018-09-25T12:05:51.505Z,-84.4802
2018-09-25T12:06:57.473Z,-85.4737
2018-09-25T12:08:02.624Z,-84.4802
2018-09-25T12:09:07.575Z,-84.3164
2018-09-25T12:10:12.902Z,-84.068
2018-09-25T12:11:18.084Z,-83.1591
2018-09-25T12:12:23.021Z,-83.8196
2018-09-25T12:13:28.981Z,-82.6676
2018-09-25T12:14:34.230Z,-83.4074
2018-09-25T12:15:39.106Z,-83.8196
2018-09-25T12:16:43.677Z,-83.4074
2018-09-25T12:17:49.140Z,-83.5713
2018-09-25T12:18:54.072Z,-83.5713
2018-09-25T12:19:59.413Z,-84.068
2018-09-25T12:21:05.350Z,-84.068
2018-09-25T12:22:10.564Z,-83.8196
2018-09-25T12:23:15.843Z,-83.8196
2018-09-25T12:24:22.039Z,-83.1591
2018-09-25T12:25:28.289Z,-83.5713
2018-09-25T12:26:33.517Z,-83.5713
2018-09-25T12:27:39.223Z,-83.4074
2018-09-25T12:28:44.659Z,-82.6676
2018-09-25T12:29:49.549Z,-82.1708
2018-09-25T12:30:55.049Z,-81.7534
2018-09-25T12:31:59.925Z,-81.7534
2018-09-25T12:33:06.031Z,-81.5103
2018-09-25T12:34:11.524Z,-82.1708
2018-09-25T12:35:16.726Z,-82.4139
2018-09-25T12:36:22.012Z,-82.4139
2018-09-25T12:37:42.369Z,-82.9107
2018-09-25T12:38:47.531Z,-82.007
2018-09-25T12:39:53.257Z,-81.5103
2018-09-25T12:40:58.673Z,-81.7534
2018-09-25T12:42:03.681Z,-82.007
2018-09-25T12:43:09.377Z,-81.5103
2018-09-25T12:44:14.388Z,-81.2619
2018-09-25T12:45:19.260Z,-81.2619
2018-09-25T12:46:25.052Z,-81.5103
2018-09-25T12:47:30.050Z,-81.7534
2018-09-25T12:48:35.563Z,-81.2619
2018-09-25T12:49:40.427Z,-82.007
2018-09-25T12:50:45.854Z,-82.1708
2018-09-25T12:51:51.318Z,-82.4139
2018-09-25T12:52:56.251Z,-82.4139